sensor_id;sensor_type;location;lat;lon;timestamp;P1;durP1;ratioP1;P2;durP2;ratioP2
73264;SDS011;61493;51.008;14.088;2022-08-21T00:00:11;53.30;;;24.58;;
73264;SDS011;61493;51.008;14.088;2022-08-21T00:02:45;41.58;;;21.42;;
73264;SDS011;61493;51.008;14.088;2022-08-21T00:05:12;40.35;;;19.65;;
73264;SDS011;61493;51.008;14.088;2022-08-21T00:07:37;41.50;;;20.92;;
73264;SDS011;61493;51.008;14.088;2022-08-21T00:10:03;40.28;;;20.33;;
73264;SDS011;61493;51.008;14.088;2022-08-21T00:12:29;44.78;;;21.63;;
73264;SDS011;61493;51.008;14.088;2022-08-21T00:14:56;43.53;;;21.92;;
73264;SDS011;61493;51.008;14.088;2022-08-21T00:17:21;55.97;;;25.23;;
73264;SDS011;61493;51.008;14.088;2022-08-21T00:19:47;50.10;;;24.70;;
73264;SDS011;61493;51.008;14.088;2022-08-21T00:22:12;47.03;;;23.25;;
73264;SDS011;61493;51.008;14.088;2022-08-21T00:24:38;46.33;;;23.52;;
73264;SDS011;61493;51.008;14.088;2022-08-21T00:27:03;47.95;;;22.83;;
73264;SDS011;61493;51.008;14.088;2022-08-21T00:29:28;43.05;;;22.42;;
73264;SDS011;61493;51.008;14.088;2022-08-21T00:31:54;38.78;;;20.58;;
73264;SDS011;61493;51.008;14.088;2022-08-21T00:34:19;44.50;;;23.42;;
73264;SDS011;61493;51.008;14.088;2022-08-21T00:36:44;47.97;;;21.85;;
73264;SDS011;61493;51.008;14.088;2022-08-21T00:39:10;48.92;;;23.13;;
73264;SDS011;61493;51.008;14.088;2022-08-21T00:41:36;49.80;;;27.38;;
73264;SDS011;61493;51.008;14.088;2022-08-21T00:44:03;40.53;;;19.52;;
73264;SDS011;61493;51.008;14.088;2022-08-21T00:46:30;47.25;;;24.83;;
73264;SDS011;61493;51.008;14.088;2022-08-21T00:48:55;47.17;;;24.63;;
73264;SDS011;61493;51.008;14.088;2022-08-21T00:51:25;42.65;;;23.05;;
73264;SDS011;61493;51.008;14.088;2022-08-21T00:53:57;44.92;;;23.20;;
73264;SDS011;61493;51.008;14.088;2022-08-21T00:56:26;47.20;;;24.60;;
73264;SDS011;61493;51.008;14.088;2022-08-21T00:58:52;54.55;;;27.27;;
73264;SDS011;61493;51.008;14.088;2022-08-21T01:01:20;49.20;;;24.58;;
73264;SDS011;61493;51.008;14.088;2022-08-21T01:03:46;50.28;;;26.63;;
73264;SDS011;61493;51.008;14.088;2022-08-21T01:06:12;58.35;;;28.88;;
73264;SDS011;61493;51.008;14.088;2022-08-21T01:08:37;46.00;;;23.88;;
73264;SDS011;61493;51.008;14.088;2022-08-21T01:11:03;52.55;;;27.55;;
73264;SDS011;61493;51.008;14.088;2022-08-21T01:13:30;51.35;;;26.15;;
73264;SDS011;61493;51.008;14.088;2022-08-21T01:15:59;49.55;;;26.70;;
73264;SDS011;61493;51.008;14.088;2022-08-21T01:18:27;55.35;;;28.92;;
73264;SDS011;61493;51.008;14.088;2022-08-21T01:21:35;50.25;;;25.73;;
73264;SDS011;61493;51.008;14.088;2022-08-21T01:23:45;46.95;;;25.38;;
73264;SDS011;61493;51.008;14.088;2022-08-21T01:26:13;47.75;;;24.35;;
73264;SDS011;61493;51.008;14.088;2022-08-21T01:28:46;56.00;;;27.15;;
73264;SDS011;61493;51.008;14.088;2022-08-21T01:31:25;47.97;;;26.30;;
73264;SDS011;61493;51.008;14.088;2022-08-21T01:33:53;50.03;;;24.50;;
73264;SDS011;61493;51.008;14.088;2022-08-21T01:36:20;43.75;;;24.50;;
73264;SDS011;61493;51.008;14.088;2022-08-21T01:38:45;50.40;;;26.13;;
73264;SDS011;61493;51.008;14.088;2022-08-21T01:41:12;46.72;;;24.58;;
73264;SDS011;61493;51.008;14.088;2022-08-21T01:43:38;48.67;;;25.60;;
73264;SDS011;61493;51.008;14.088;2022-08-21T01:46:03;47.13;;;24.80;;
73264;SDS011;61493;51.008;14.088;2022-08-21T01:48:29;46.67;;;24.35;;
73264;SDS011;61493;51.008;14.088;2022-08-21T01:50:54;42.90;;;22.35;;
73264;SDS011;61493;51.008;14.088;2022-08-21T01:53:19;41.22;;;20.90;;
73264;SDS011;61493;51.008;14.088;2022-08-21T01:55:48;42.08;;;21.52;;
73264;SDS011;61493;51.008;14.088;2022-08-21T01:58:13;42.05;;;22.67;;
73264;SDS011;61493;51.008;14.088;2022-08-21T02:00:38;35.25;;;19.33;;
73264;SDS011;61493;51.008;14.088;2022-08-21T02:03:04;35.92;;;19.00;;
73264;SDS011;61493;51.008;14.088;2022-08-21T02:05:29;34.83;;;20.33;;
73264;SDS011;61493;51.008;14.088;2022-08-21T02:07:55;31.83;;;19.27;;
73264;SDS011;61493;51.008;14.088;2022-08-21T02:10:23;36.80;;;20.00;;
73264;SDS011;61493;51.008;14.088;2022-08-21T02:12:53;32.40;;;18.98;;
73264;SDS011;61493;51.008;14.088;2022-08-21T02:15:20;32.40;;;18.73;;
73264;SDS011;61493;51.008;14.088;2022-08-21T02:17:47;30.40;;;18.08;;
73264;SDS011;61493;51.008;14.088;2022-08-21T02:20:16;38.40;;;19.38;;
73264;SDS011;61493;51.008;14.088;2022-08-21T02:22:49;33.22;;;18.27;;
73264;SDS011;61493;51.008;14.088;2022-08-21T02:25:16;28.85;;;17.73;;
73264;SDS011;61493;51.008;14.088;2022-08-21T02:27:43;32.97;;;18.63;;
73264;SDS011;61493;51.008;14.088;2022-08-21T02:30:12;26.88;;;14.43;;
73264;SDS011;61493;51.008;14.088;2022-08-21T02:32:43;23.70;;;14.05;;
73264;SDS011;61493;51.008;14.088;2022-08-21T02:35:09;25.13;;;14.88;;
73264;SDS011;61493;51.008;14.088;2022-08-21T02:37:43;21.23;;;13.13;;
73264;SDS011;61493;51.008;14.088;2022-08-21T02:40:29;20.15;;;11.35;;
73264;SDS011;61493;51.008;14.088;2022-08-21T02:43:00;16.33;;;9.48;;
73264;SDS011;61493;51.008;14.088;2022-08-21T02:45:28;12.02;;;7.53;;
73264;SDS011;61493;51.008;14.088;2022-08-21T02:47:54;11.27;;;7.30;;
73264;SDS011;61493;51.008;14.088;2022-08-21T02:50:26;10.85;;;6.95;;
73264;SDS011;61493;51.008;14.088;2022-08-21T02:52:54;9.47;;;6.07;;
73264;SDS011;61493;51.008;14.088;2022-08-21T02:55:20;11.80;;;6.68;;
73264;SDS011;61493;51.008;14.088;2022-08-21T02:57:47;11.60;;;7.07;;
73264;SDS011;61493;51.008;14.088;2022-08-21T03:00:13;12.57;;;7.07;;
73264;SDS011;61493;51.008;14.088;2022-08-21T03:02:39;10.32;;;6.70;;
73264;SDS011;61493;51.008;14.088;2022-08-21T03:05:06;14.73;;;7.05;;
73264;SDS011;61493;51.008;14.088;2022-08-21T03:07:33;11.88;;;7.43;;
73264;SDS011;61493;51.008;14.088;2022-08-21T03:09:59;11.77;;;6.45;;
73264;SDS011;61493;51.008;14.088;2022-08-21T03:12:25;9.15;;;5.97;;
73264;SDS011;61493;51.008;14.088;2022-08-21T03:14:50;10.45;;;6.75;;
73264;SDS011;61493;51.008;14.088;2022-08-21T03:17:15;11.40;;;6.63;;
73264;SDS011;61493;51.008;14.088;2022-08-21T03:19:41;10.85;;;6.63;;
73264;SDS011;61493;51.008;14.088;2022-08-21T03:22:06;9.23;;;6.00;;
73264;SDS011;61493;51.008;14.088;2022-08-21T03:24:31;9.02;;;6.13;;
73264;SDS011;61493;51.008;14.088;2022-08-21T03:26:57;12.00;;;6.32;;
73264;SDS011;61493;51.008;14.088;2022-08-21T03:29:22;12.05;;;6.38;;
73264;SDS011;61493;51.008;14.088;2022-08-21T03:31:47;10.48;;;5.95;;
73264;SDS011;61493;51.008;14.088;2022-08-21T03:34:13;12.55;;;7.25;;
73264;SDS011;61493;51.008;14.088;2022-08-21T03:36:38;10.68;;;6.00;;
73264;SDS011;61493;51.008;14.088;2022-08-21T03:39:04;7.90;;;5.05;;
73264;SDS011;61493;51.008;14.088;2022-08-21T03:41:30;10.40;;;6.35;;
73264;SDS011;61493;51.008;14.088;2022-08-21T03:43:55;9.45;;;5.40;;
73264;SDS011;61493;51.008;14.088;2022-08-21T03:46:20;11.50;;;6.75;;
73264;SDS011;61493;51.008;14.088;2022-08-21T03:48:46;10.57;;;6.88;;
73264;SDS011;61493;51.008;14.088;2022-08-21T03:51:12;8.60;;;6.40;;
73264;SDS011;61493;51.008;14.088;2022-08-21T03:53:37;9.50;;;5.82;;
73264;SDS011;61493;51.008;14.088;2022-08-21T03:56:03;12.70;;;6.68;;
73264;SDS011;61493;51.008;14.088;2022-08-21T03:58:29;11.40;;;6.18;;
73264;SDS011;61493;51.008;14.088;2022-08-21T04:00:56;9.07;;;5.93;;
73264;SDS011;61493;51.008;14.088;2022-08-21T04:03:22;11.63;;;7.72;;
73264;SDS011;61493;51.008;14.088;2022-08-21T04:05:48;10.48;;;6.70;;
73264;SDS011;61493;51.008;14.088;2022-08-21T04:08:15;11.63;;;7.65;;
73264;SDS011;61493;51.008;14.088;2022-08-21T04:10:43;13.30;;;7.85;;
73264;SDS011;61493;51.008;14.088;2022-08-21T04:13:11;15.60;;;9.27;;
73264;SDS011;61493;51.008;14.088;2022-08-21T04:15:37;13.85;;;7.22;;
73264;SDS011;61493;51.008;14.088;2022-08-21T04:18:02;12.40;;;8.48;;
73264;SDS011;61493;51.008;14.088;2022-08-21T04:20:28;15.43;;;9.23;;
73264;SDS011;61493;51.008;14.088;2022-08-21T04:22:54;12.32;;;7.53;;
73264;SDS011;61493;51.008;14.088;2022-08-21T04:25:20;13.45;;;8.18;;
73264;SDS011;61493;51.008;14.088;2022-08-21T04:27:47;12.88;;;7.38;;
73264;SDS011;61493;51.008;14.088;2022-08-21T04:30:13;14.00;;;8.25;;
73264;SDS011;61493;51.008;14.088;2022-08-21T04:32:41;13.10;;;7.95;;
73264;SDS011;61493;51.008;14.088;2022-08-21T04:35:09;15.25;;;8.70;;
73264;SDS011;61493;51.008;14.088;2022-08-21T04:37:35;13.98;;;7.93;;
73264;SDS011;61493;51.008;14.088;2022-08-21T04:40:01;15.50;;;9.25;;
73264;SDS011;61493;51.008;14.088;2022-08-21T04:42:27;13.20;;;7.75;;
73264;SDS011;61493;51.008;14.088;2022-08-21T04:44:53;15.20;;;9.55;;
73264;SDS011;61493;51.008;14.088;2022-08-21T04:47:19;14.35;;;8.88;;
73264;SDS011;61493;51.008;14.088;2022-08-21T04:49:45;14.05;;;8.98;;
73264;SDS011;61493;51.008;14.088;2022-08-21T04:52:11;16.10;;;9.23;;
73264;SDS011;61493;51.008;14.088;2022-08-21T04:54:39;13.43;;;7.93;;
73264;SDS011;61493;51.008;14.088;2022-08-21T04:57:06;15.10;;;9.65;;
73264;SDS011;61493;51.008;14.088;2022-08-21T04:59:40;14.65;;;8.30;;
73264;SDS011;61493;51.008;14.088;2022-08-21T05:02:09;15.30;;;9.38;;
73264;SDS011;61493;51.008;14.088;2022-08-21T05:04:36;14.45;;;8.85;;
73264;SDS011;61493;51.008;14.088;2022-08-21T05:07:10;14.63;;;8.95;;
73264;SDS011;61493;51.008;14.088;2022-08-21T05:09:40;13.75;;;8.63;;
73264;SDS011;61493;51.008;14.088;2022-08-21T05:12:06;13.00;;;8.52;;
73264;SDS011;61493;51.008;14.088;2022-08-21T05:14:31;13.70;;;9.07;;
73264;SDS011;61493;51.008;14.088;2022-08-21T05:16:57;14.60;;;10.05;;
73264;SDS011;61493;51.008;14.088;2022-08-21T05:19:23;14.15;;;9.02;;
73264;SDS011;61493;51.008;14.088;2022-08-21T05:21:50;15.23;;;9.95;;
73264;SDS011;61493;51.008;14.088;2022-08-21T05:24:16;15.35;;;11.18;;
73264;SDS011;61493;51.008;14.088;2022-08-21T05:26:42;14.20;;;8.20;;
73264;SDS011;61493;51.008;14.088;2022-08-21T05:29:07;14.07;;;8.70;;
73264;SDS011;61493;51.008;14.088;2022-08-21T05:31:33;14.30;;;8.25;;
73264;SDS011;61493;51.008;14.088;2022-08-21T05:33:58;15.88;;;8.95;;
73264;SDS011;61493;51.008;14.088;2022-08-21T05:36:24;13.13;;;8.32;;
73264;SDS011;61493;51.008;14.088;2022-08-21T05:38:49;12.57;;;8.05;;
73264;SDS011;61493;51.008;14.088;2022-08-21T05:41:15;11.98;;;6.90;;
73264;SDS011;61493;51.008;14.088;2022-08-21T05:43:40;11.40;;;7.55;;
73264;SDS011;61493;51.008;14.088;2022-08-21T05:46:06;10.93;;;7.53;;
73264;SDS011;61493;51.008;14.088;2022-08-21T05:48:32;11.48;;;7.70;;
73264;SDS011;61493;51.008;14.088;2022-08-21T05:51:03;15.85;;;9.95;;
73264;SDS011;61493;51.008;14.088;2022-08-21T05:53:30;15.57;;;8.85;;
73264;SDS011;61493;51.008;14.088;2022-08-21T05:55:55;12.27;;;8.20;;
73264;SDS011;61493;51.008;14.088;2022-08-21T05:58:21;13.20;;;9.18;;
73264;SDS011;61493;51.008;14.088;2022-08-21T06:00:49;14.98;;;9.38;;
73264;SDS011;61493;51.008;14.088;2022-08-21T06:03:25;13.98;;;8.35;;
73264;SDS011;61493;51.008;14.088;2022-08-21T06:05:52;14.10;;;9.85;;
73264;SDS011;61493;51.008;14.088;2022-08-21T06:08:19;15.70;;;10.50;;
73264;SDS011;61493;51.008;14.088;2022-08-21T06:10:45;13.27;;;9.68;;
73264;SDS011;61493;51.008;14.088;2022-08-21T06:13:12;14.68;;;9.55;;
73264;SDS011;61493;51.008;14.088;2022-08-21T06:15:38;15.05;;;10.40;;
73264;SDS011;61493;51.008;14.088;2022-08-21T06:18:03;14.23;;;9.57;;
73264;SDS011;61493;51.008;14.088;2022-08-21T06:20:29;15.52;;;10.13;;
73264;SDS011;61493;51.008;14.088;2022-08-21T06:22:54;16.73;;;11.40;;
73264;SDS011;61493;51.008;14.088;2022-08-21T06:25:20;18.05;;;11.35;;
73264;SDS011;61493;51.008;14.088;2022-08-21T06:27:45;15.57;;;9.80;;
73264;SDS011;61493;51.008;14.088;2022-08-21T06:30:11;14.55;;;10.00;;
73264;SDS011;61493;51.008;14.088;2022-08-21T06:32:37;19.25;;;10.88;;
73264;SDS011;61493;51.008;14.088;2022-08-21T06:35:03;15.55;;;10.43;;
73264;SDS011;61493;51.008;14.088;2022-08-21T06:37:29;15.40;;;9.45;;
73264;SDS011;61493;51.008;14.088;2022-08-21T06:39:54;17.38;;;11.00;;
73264;SDS011;61493;51.008;14.088;2022-08-21T06:42:20;13.77;;;9.45;;
73264;SDS011;61493;51.008;14.088;2022-08-21T06:44:45;17.67;;;9.85;;
73264;SDS011;61493;51.008;14.088;2022-08-21T06:47:11;13.70;;;8.93;;
73264;SDS011;61493;51.008;14.088;2022-08-21T06:49:36;15.68;;;9.70;;
73264;SDS011;61493;51.008;14.088;2022-08-21T06:52:02;15.25;;;9.45;;
73264;SDS011;61493;51.008;14.088;2022-08-21T06:54:34;13.45;;;9.18;;
73264;SDS011;61493;51.008;14.088;2022-08-21T06:56:59;15.45;;;9.93;;
73264;SDS011;61493;51.008;14.088;2022-08-21T06:59:27;16.90;;;9.68;;
73264;SDS011;61493;51.008;14.088;2022-08-21T07:01:52;16.08;;;9.68;;
73264;SDS011;61493;51.008;14.088;2022-08-21T07:04:17;14.40;;;9.65;;
73264;SDS011;61493;51.008;14.088;2022-08-21T07:06:43;14.07;;;9.30;;
73264;SDS011;61493;51.008;14.088;2022-08-21T07:09:08;14.57;;;9.85;;
73264;SDS011;61493;51.008;14.088;2022-08-21T07:11:35;13.18;;;8.45;;
73264;SDS011;61493;51.008;14.088;2022-08-21T07:14:01;11.55;;;8.40;;
73264;SDS011;61493;51.008;14.088;2022-08-21T07:16:26;12.95;;;9.38;;
73264;SDS011;61493;51.008;14.088;2022-08-21T07:18:52;11.25;;;7.78;;
73264;SDS011;61493;51.008;14.088;2022-08-21T07:21:17;14.20;;;8.70;;
73264;SDS011;61493;51.008;14.088;2022-08-21T07:23:44;11.63;;;7.93;;
73264;SDS011;61493;51.008;14.088;2022-08-21T07:26:11;14.00;;;8.77;;
73264;SDS011;61493;51.008;14.088;2022-08-21T07:28:38;12.15;;;8.55;;
73264;SDS011;61493;51.008;14.088;2022-08-21T07:31:04;11.23;;;7.65;;
73264;SDS011;61493;51.008;14.088;2022-08-21T07:33:30;9.20;;;6.38;;
73264;SDS011;61493;51.008;14.088;2022-08-21T07:35:57;11.73;;;7.78;;
73264;SDS011;61493;51.008;14.088;2022-08-21T07:38:22;10.02;;;6.90;;
73264;SDS011;61493;51.008;14.088;2022-08-21T07:40:48;11.80;;;7.35;;
73264;SDS011;61493;51.008;14.088;2022-08-21T07:43:15;11.32;;;7.95;;
73264;SDS011;61493;51.008;14.088;2022-08-21T07:45:42;9.30;;;6.30;;
73264;SDS011;61493;51.008;14.088;2022-08-21T07:48:07;11.05;;;5.85;;
73264;SDS011;61493;51.008;14.088;2022-08-21T07:50:35;11.75;;;6.57;;
73264;SDS011;61493;51.008;14.088;2022-08-21T07:53:01;10.40;;;7.10;;
73264;SDS011;61493;51.008;14.088;2022-08-21T07:55:27;9.27;;;6.10;;
73264;SDS011;61493;51.008;14.088;2022-08-21T07:57:53;8.95;;;6.45;;
73264;SDS011;61493;51.008;14.088;2022-08-21T08:00:20;10.45;;;7.13;;
73264;SDS011;61493;51.008;14.088;2022-08-21T08:02:48;10.77;;;6.07;;
73264;SDS011;61493;51.008;14.088;2022-08-21T08:05:16;9.60;;;6.95;;
73264;SDS011;61493;51.008;14.088;2022-08-21T08:07:42;9.90;;;6.72;;
73264;SDS011;61493;51.008;14.088;2022-08-21T08:10:08;9.00;;;6.55;;
73264;SDS011;61493;51.008;14.088;2022-08-21T08:12:34;10.90;;;7.07;;
73264;SDS011;61493;51.008;14.088;2022-08-21T08:15:00;9.90;;;6.95;;
73264;SDS011;61493;51.008;14.088;2022-08-21T08:17:26;11.95;;;7.18;;
73264;SDS011;61493;51.008;14.088;2022-08-21T08:19:52;11.93;;;7.22;;
73264;SDS011;61493;51.008;14.088;2022-08-21T08:22:19;11.18;;;7.60;;
73264;SDS011;61493;51.008;14.088;2022-08-21T08:24:48;11.68;;;8.13;;
73264;SDS011;61493;51.008;14.088;2022-08-21T08:27:15;11.93;;;7.22;;
73264;SDS011;61493;51.008;14.088;2022-08-21T08:29:41;13.80;;;9.15;;
73264;SDS011;61493;51.008;14.088;2022-08-21T08:32:06;13.15;;;7.85;;
73264;SDS011;61493;51.008;14.088;2022-08-21T08:34:32;12.65;;;8.90;;
73264;SDS011;61493;51.008;14.088;2022-08-21T08:36:58;13.85;;;8.18;;
73264;SDS011;61493;51.008;14.088;2022-08-21T08:39:24;10.75;;;8.00;;
73264;SDS011;61493;51.008;14.088;2022-08-21T08:41:52;9.93;;;7.43;;
73264;SDS011;61493;51.008;14.088;2022-08-21T08:44:24;11.93;;;7.90;;
73264;SDS011;61493;51.008;14.088;2022-08-21T08:46:50;10.07;;;7.15;;
73264;SDS011;61493;51.008;14.088;2022-08-21T08:49:20;10.85;;;7.47;;
73264;SDS011;61493;51.008;14.088;2022-08-21T08:51:51;8.70;;;6.13;;
73264;SDS011;61493;51.008;14.088;2022-08-21T08:54:38;12.85;;;5.82;;
73264;SDS011;61493;51.008;14.088;2022-08-21T08:57:09;8.35;;;5.47;;
73264;SDS011;61493;51.008;14.088;2022-08-21T08:59:48;8.05;;;5.47;;
73264;SDS011;61493;51.008;14.088;2022-08-21T09:02:17;8.10;;;5.30;;
73264;SDS011;61493;51.008;14.088;2022-08-21T09:04:44;7.05;;;5.13;;
73264;SDS011;61493;51.008;14.088;2022-08-21T09:10:06;10.70;;;4.95;;
73264;SDS011;61493;51.008;14.088;2022-08-21T09:12:59;6.53;;;5.22;;
73264;SDS011;61493;51.008;14.088;2022-08-21T09:21:31;7.32;;;4.85;;
73264;SDS011;61493;51.008;14.088;2022-08-21T09:29:36;6.40;;;4.22;;
73264;SDS011;61493;51.008;14.088;2022-08-21T09:32:18;7.45;;;4.05;;
73264;SDS011;61493;51.008;14.088;2022-08-21T09:37:55;6.43;;;3.50;;
73264;SDS011;61493;51.008;14.088;2022-08-21T09:40:36;6.55;;;3.40;;
73264;SDS011;61493;51.008;14.088;2022-08-21T09:43:06;5.63;;;3.03;;
73264;SDS011;61493;51.008;14.088;2022-08-21T09:45:32;4.95;;;2.85;;
73264;SDS011;61493;51.008;14.088;2022-08-21T09:48:21;5.22;;;2.75;;
73264;SDS011;61493;51.008;14.088;2022-08-21T09:50:48;7.00;;;2.58;;
73264;SDS011;61493;51.008;14.088;2022-08-21T09:53:19;12.07;;;3.30;;
73264;SDS011;61493;51.008;14.088;2022-08-21T09:55:54;5.43;;;2.95;;
73264;SDS011;61493;51.008;14.088;2022-08-21T09:58:41;5.28;;;2.90;;
73264;SDS011;61493;51.008;14.088;2022-08-21T10:01:17;4.40;;;2.63;;
73264;SDS011;61493;51.008;14.088;2022-08-21T10:03:44;6.18;;;3.08;;
73264;SDS011;61493;51.008;14.088;2022-08-21T10:06:19;4.90;;;3.00;;
73264;SDS011;61493;51.008;14.088;2022-08-21T10:08:48;4.95;;;3.90;;
73264;SDS011;61493;51.008;14.088;2022-08-21T10:11:15;3.22;;;2.85;;
73264;SDS011;61493;51.008;14.088;2022-08-21T10:16:16;5.63;;;2.30;;
73264;SDS011;61493;51.008;14.088;2022-08-21T10:27:37;6.35;;;2.58;;
73264;SDS011;61493;51.008;14.088;2022-08-21T10:30:14;5.55;;;2.38;;
73264;SDS011;61493;51.008;14.088;2022-08-21T10:32:56;5.57;;;2.60;;
73264;SDS011;61493;51.008;14.088;2022-08-21T10:40:34;4.95;;;1.80;;
73264;SDS011;61493;51.008;14.088;2022-08-21T10:48:48;5.05;;;2.15;;
73264;SDS011;61493;51.008;14.088;2022-08-21T10:53:55;7.47;;;1.88;;
73264;SDS011;61493;51.008;14.088;2022-08-21T10:56:30;4.10;;;1.85;;
73264;SDS011;61493;51.008;14.088;2022-08-21T10:59:07;5.68;;;1.85;;
73264;SDS011;61493;51.008;14.088;2022-08-21T11:01:48;5.47;;;2.58;;
73264;SDS011;61493;51.008;14.088;2022-08-21T11:04:25;2.88;;;1.92;;
73264;SDS011;61493;51.008;14.088;2022-08-21T11:07:00;3.45;;;1.60;;
73264;SDS011;61493;51.008;14.088;2022-08-21T11:09:39;4.50;;;1.97;;
73264;SDS011;61493;51.008;14.088;2022-08-21T11:17:47;6.45;;;2.10;;
73264;SDS011;61493;51.008;14.088;2022-08-21T11:20:28;5.20;;;2.20;;
73264;SDS011;61493;51.008;14.088;2022-08-21T11:23:00;5.00;;;1.73;;
73264;SDS011;61493;51.008;14.088;2022-08-21T11:25:34;2.95;;;1.75;;
73264;SDS011;61493;51.008;14.088;2022-08-21T11:28:13;4.40;;;1.83;;
73264;SDS011;61493;51.008;14.088;2022-08-21T11:38:50;5.20;;;1.85;;
73264;SDS011;61493;51.008;14.088;2022-08-21T11:41:44;4.05;;;1.85;;
73264;SDS011;61493;51.008;14.088;2022-08-21T11:50:15;5.75;;;1.77;;
73264;SDS011;61493;51.008;14.088;2022-08-21T11:52:45;3.88;;;1.35;;
73264;SDS011;61493;51.008;14.088;2022-08-21T11:55:38;2.97;;;1.70;;
73264;SDS011;61493;51.008;14.088;2022-08-21T11:58:25;4.03;;;1.83;;
73264;SDS011;61493;51.008;14.088;2022-08-21T12:01:04;3.75;;;1.33;;
73264;SDS011;61493;51.008;14.088;2022-08-21T12:03:39;3.10;;;1.17;;
73264;SDS011;61493;51.008;14.088;2022-08-21T12:06:11;3.40;;;1.30;;
73264;SDS011;61493;51.008;14.088;2022-08-21T12:11:10;2.88;;;1.17;;
73264;SDS011;61493;51.008;14.088;2022-08-21T12:16:30;3.85;;;1.30;;
73264;SDS011;61493;51.008;14.088;2022-08-21T12:21:52;6.22;;;1.52;;
73264;SDS011;61493;51.008;14.088;2022-08-21T12:24:40;3.50;;;1.45;;
73264;SDS011;61493;51.008;14.088;2022-08-21T12:29:58;3.35;;;1.83;;
73264;SDS011;61493;51.008;14.088;2022-08-21T12:32:42;4.03;;;1.45;;
73264;SDS011;61493;51.008;14.088;2022-08-21T12:35:15;2.05;;;1.20;;
73264;SDS011;61493;51.008;14.088;2022-08-21T12:37:56;4.53;;;1.53;;
73264;SDS011;61493;51.008;14.088;2022-08-21T12:40:37;3.20;;;1.90;;
73264;SDS011;61493;51.008;14.088;2022-08-21T12:43:06;4.70;;;1.77;;
73264;SDS011;61493;51.008;14.088;2022-08-21T12:45:44;6.50;;;1.92;;
73264;SDS011;61493;51.008;14.088;2022-08-21T12:48:20;5.40;;;1.80;;
73264;SDS011;61493;51.008;14.088;2022-08-21T12:50:54;4.75;;;1.60;;
73264;SDS011;61493;51.008;14.088;2022-08-21T12:56:09;3.38;;;1.60;;
73264;SDS011;61493;51.008;14.088;2022-08-21T12:58:39;4.32;;;1.70;;
73264;SDS011;61493;51.008;14.088;2022-08-21T13:01:07;5.60;;;2.10;;
73264;SDS011;61493;51.008;14.088;2022-08-21T13:03:41;2.03;;;1.58;;
73264;SDS011;61493;51.008;14.088;2022-08-21T13:06:07;5.07;;;2.10;;
73264;SDS011;61493;51.008;14.088;2022-08-21T13:08:37;4.53;;;1.60;;
73264;SDS011;61493;51.008;14.088;2022-08-21T13:11:04;5.22;;;1.60;;
73264;SDS011;61493;51.008;14.088;2022-08-21T13:13:30;5.38;;;1.58;;
73264;SDS011;61493;51.008;14.088;2022-08-21T13:16:07;5.60;;;1.92;;
73264;SDS011;61493;51.008;14.088;2022-08-21T13:18:34;4.63;;;1.23;;
73264;SDS011;61493;51.008;14.088;2022-08-21T13:21:09;2.88;;;1.20;;
73264;SDS011;61493;51.008;14.088;2022-08-21T13:23:36;4.07;;;1.50;;
73264;SDS011;61493;51.008;14.088;2022-08-21T13:26:11;3.88;;;1.50;;
73264;SDS011;61493;51.008;14.088;2022-08-21T13:28:55;4.03;;;1.40;;
73264;SDS011;61493;51.008;14.088;2022-08-21T13:31:32;2.65;;;1.33;;
73264;SDS011;61493;51.008;14.088;2022-08-21T13:33:58;4.68;;;1.55;;
73264;SDS011;61493;51.008;14.088;2022-08-21T13:36:25;3.67;;;1.38;;
73264;SDS011;61493;51.008;14.088;2022-08-21T13:38:54;4.45;;;1.20;;
73264;SDS011;61493;51.008;14.088;2022-08-21T13:41:24;3.45;;;1.55;;
73264;SDS011;61493;51.008;14.088;2022-08-21T13:43:57;5.18;;;1.70;;
73264;SDS011;61493;51.008;14.088;2022-08-21T13:46:26;3.00;;;1.95;;
73264;SDS011;61493;51.008;14.088;2022-08-21T13:48:54;3.38;;;1.50;;
73264;SDS011;61493;51.008;14.088;2022-08-21T13:51:20;4.40;;;1.42;;
73264;SDS011;61493;51.008;14.088;2022-08-21T13:53:47;3.10;;;1.50;;
73264;SDS011;61493;51.008;14.088;2022-08-21T13:58:57;3.22;;;1.33;;
73264;SDS011;61493;51.008;14.088;2022-08-21T14:01:27;1.45;;;1.10;;
73264;SDS011;61493;51.008;14.088;2022-08-21T14:03:56;2.13;;;1.10;;
73264;SDS011;61493;51.008;14.088;2022-08-21T14:06:28;3.90;;;1.30;;
73264;SDS011;61493;51.008;14.088;2022-08-21T14:09:09;2.15;;;1.02;;
73264;SDS011;61493;51.008;14.088;2022-08-21T14:11:37;4.38;;;1.35;;
73264;SDS011;61493;51.008;14.088;2022-08-21T14:14:05;3.53;;;1.20;;
73264;SDS011;61493;51.008;14.088;2022-08-21T14:16:43;1.35;;;0.98;;
73264;SDS011;61493;51.008;14.088;2022-08-21T14:19:20;1.75;;;1.02;;
73264;SDS011;61493;51.008;14.088;2022-08-21T14:21:48;3.38;;;1.23;;
73264;SDS011;61493;51.008;14.088;2022-08-21T14:26:52;2.33;;;1.27;;
73264;SDS011;61493;51.008;14.088;2022-08-21T14:29:20;2.65;;;0.85;;
73264;SDS011;61493;51.008;14.088;2022-08-21T14:31:54;5.82;;;1.52;;
73264;SDS011;61493;51.008;14.088;2022-08-21T14:34:22;1.77;;;1.05;;
73264;SDS011;61493;51.008;14.088;2022-08-21T14:36:49;3.80;;;1.20;;
73264;SDS011;61493;51.008;14.088;2022-08-21T14:39:15;2.47;;;1.10;;
73264;SDS011;61493;51.008;14.088;2022-08-21T14:41:41;2.05;;;1.00;;
73264;SDS011;61493;51.008;14.088;2022-08-21T14:44:07;8.95;;;1.55;;
73264;SDS011;61493;51.008;14.088;2022-08-21T14:46:34;4.22;;;1.20;;
73264;SDS011;61493;51.008;14.088;2022-08-21T14:49:00;1.10;;;1.00;;
73264;SDS011;61493;51.008;14.088;2022-08-21T14:51:26;2.38;;;1.35;;
73264;SDS011;61493;51.008;14.088;2022-08-21T14:53:51;2.90;;;1.33;;
73264;SDS011;61493;51.008;14.088;2022-08-21T14:56:16;2.70;;;1.13;;
73264;SDS011;61493;51.008;14.088;2022-08-21T14:58:43;1.45;;;1.20;;
73264;SDS011;61493;51.008;14.088;2022-08-21T15:01:11;3.78;;;1.20;;
73264;SDS011;61493;51.008;14.088;2022-08-21T15:03:39;2.33;;;1.30;;
73264;SDS011;61493;51.008;14.088;2022-08-21T15:06:04;2.67;;;1.23;;
73264;SDS011;61493;51.008;14.088;2022-08-21T15:08:31;4.78;;;1.42;;
73264;SDS011;61493;51.008;14.088;2022-08-21T15:10:57;3.13;;;1.67;;
73264;SDS011;61493;51.008;14.088;2022-08-21T15:13:22;3.22;;;1.10;;
73264;SDS011;61493;51.008;14.088;2022-08-21T15:15:49;2.10;;;1.00;;
73264;SDS011;61493;51.008;14.088;2022-08-21T15:18:17;4.00;;;1.23;;
73264;SDS011;61493;51.008;14.088;2022-08-21T15:20:43;3.65;;;1.13;;
73264;SDS011;61493;51.008;14.088;2022-08-21T15:23:09;4.18;;;1.13;;
73264;SDS011;61493;51.008;14.088;2022-08-21T15:25:34;3.63;;;1.40;;
73264;SDS011;61493;51.008;14.088;2022-08-21T15:28:00;2.17;;;1.02;;
73264;SDS011;61493;51.008;14.088;2022-08-21T15:30:26;5.63;;;1.10;;
73264;SDS011;61493;51.008;14.088;2022-08-21T15:32:53;3.55;;;1.60;;
73264;SDS011;61493;51.008;14.088;2022-08-21T15:35:19;2.55;;;1.20;;
73264;SDS011;61493;51.008;14.088;2022-08-21T15:37:44;3.45;;;1.20;;
73264;SDS011;61493;51.008;14.088;2022-08-21T15:40:09;6.47;;;2.13;;
73264;SDS011;61493;51.008;14.088;2022-08-21T15:42:35;3.10;;;1.10;;
73264;SDS011;61493;51.008;14.088;2022-08-21T15:45:03;3.17;;;0.95;;
73264;SDS011;61493;51.008;14.088;2022-08-21T15:47:29;2.17;;;1.63;;
73264;SDS011;61493;51.008;14.088;2022-08-21T15:49:56;3.00;;;1.10;;
73264;SDS011;61493;51.008;14.088;2022-08-21T15:52:22;2.92;;;1.20;;